Flight Track Log - Related Links

Times and Time Zones

All times are in EDT time to prevent confusion due to time zone crossing. See the ASQ6129 flight status page for this flight to view local times or setup timezone preferences in your user account.

Time Position Orientation Groundspeed Altitude Reporting Facility
EDT Latitude Longitude Course Direction KTS MPH feet Rate Location/Type
Tue 10:34:34 AM 42.2028 -83.3544 194° South 159 183 1,200  Level FAA TRACON SMA TRACON (SMA)
Tue 10:35:15 AM 42.1719 -83.3644 193° South 188 216 2,500 1,704 Climbing FAA TRACON SMA TRACON (SMA)
Tue 10:35:55 AM 42.1344 -83.3764 191° South 219 252 3,500 1,650 Climbing FAA TRACON SMA TRACON (SMA)
Tue 10:36:35 AM 42.0894 -83.3886 167° South 255 293 4,700 2,189 Climbing FAA TRACON SMA TRACON (SMA)
Tue 10:37:09 AM 42.0428 -83.3736 91° East 278 320 6,200 2,053 Climbing Cleveland Center
Tue 10:37:51 AM 42.0422 -83.3064 88° East 298 343 7,300 2,059 Climbing Cleveland Center
Tue 10:38:51 AM 42.0450 -83.1892 84° East 309 356 9,700 1,350 Climbing Cleveland Center
Tue 10:39:51 AM 42.0539 -83.0664 86° East 327 376 10,000 850 Climbing Cleveland Center
Tue 10:40:51 AM 42.0611 -82.9297 87° East 350 403 11,400 1,450 Climbing Cleveland Center
Tue 10:41:51 AM 42.0658 -82.7956 84° East 355 409 12,900 1,500 Climbing Cleveland Center
Tue 10:42:51 AM 42.0767 -82.6533 85° East 372 428 14,400 1,400 Climbing Cleveland Center
Tue 10:43:51 AM 42.0853 -82.5306 97° East 372 428 15,700 1,400 Climbing Cleveland Center
Tue 10:44:51 AM 42.0728 -82.3903 101° East 367 422 17,200 1,150 Climbing Cleveland Center
Tue 10:45:51 AM 42.0519 -82.2497 104° East 376 433 18,000 900 Climbing Cleveland Center
Tue 10:46:51 AM 42.0208 -82.0869 138° Southeast 398 458 19,000 1,000 Climbing Cleveland Center
Tue 10:47:51 AM 41.9367 -81.9844 144° Southeast 398 458 20,000 1,000 Climbing Cleveland Center
Tue 10:48:51 AM 41.8442 -81.8958 144° Southeast 408 470 21,000 900 Climbing Cleveland Center
Tue 10:49:51 AM 41.7617 -81.8164 145° Southeast 408 470 21,800 900 Climbing Cleveland Center
Tue 10:50:51 AM 41.6667 -81.7283 144° Southeast 413 475 22,800 1,000 Climbing Cleveland Center
Tue 10:51:51 AM 41.5717 -81.6378 147° Southeast 418 481 23,800 1,000 Climbing Cleveland Center
Tue 10:52:51 AM 41.4744 -81.5531 145° Southeast 418 481 24,800 1,050 Climbing Cleveland Center
Tue 10:53:51 AM 41.3708 -81.4547 146° Southeast 418 481 25,900 1,000 Climbing Cleveland Center
Tue 10:54:51 AM 41.2736 -81.3678 146° Southeast 423 487 26,800 1,000 Climbing Cleveland Center
Tue 10:55:51 AM 41.1783 -81.2811 146° Southeast 418 481 27,900 1,250 Climbing Cleveland Center
Tue 10:56:51 AM 41.0889 -81.2003 146° Southeast 412 474 29,300 1,250 Climbing Cleveland Center
Tue 10:57:51 AM 40.9978 -81.1197 145° Southeast 401 461 30,400 850 Climbing Cleveland Center
Tue 10:58:51 AM 40.9064 -81.0336 147° Southeast 401 461 31,000 300 Climbing Cleveland Center
Tue 10:59:51 AM 40.8044 -80.9453 146° Southeast 407 468 31,000  Level Cleveland Center
Tue 11:00:51 AM 40.7006 -80.8542 145° Southeast 435 501 31,000  Level Cleveland Center
Tue 11:01:51 AM 40.5944 -80.7581 146° Southeast 453 521 31,000  Level Cleveland Center
Tue 11:02:51 AM 40.4861 -80.6622 145° Southeast 466 536 31,000  Level Cleveland Center
Tue 11:03:51 AM 40.3819 -80.5667 148° Southeast 466 536 31,000  Level Cleveland Center
Tue 11:04:51 AM 40.2736 -80.4769 145° Southeast 461 531 31,000  Level Cleveland Center
Tue 11:05:51 AM 40.1692 -80.3819 148° Southeast 461 531 31,000 -800 Level Cleveland Center
Tue 11:06:51 AM 40.0606 -80.2928 145° Southeast 461 531 29,400 -1,000 Descending Cleveland Center
Tue 11:09:51 AM 39.7489 -80.0106 124° Southeast 461 531 27,000 -483 Descending Cleveland Center
Tue 11:11:49 AM 39.6031 -79.7314 124° Southeast 483 556 27,000 -335 Level Washington Center
Tue 11:15:49 AM 39.3183 -79.1811 104° East 477 549 25,000 -1,714 Descending Washington Center
Tue 11:20:34 AM 39.1667 -78.4333 102° East 387 445 12,000 -2,471 Descending Potomac TRACON
Tue 11:21:29 AM 39.1500 -78.3333 119° Southeast 347 399 11,000 -843 Descending Potomac TRACON
Tue 11:22:35 AM 39.1000 -78.2167 117° Southeast 312 359 10,300 -900 Descending Potomac TRACON
Tue 11:23:29 AM 39.0667 -78.1333 117° Southeast 302 348 9,200 -1,421 Descending Potomac TRACON
Tue 11:24:29 AM 39.0333 -78.0500 113° Southeast 298 343 7,600 -1,537 Descending Potomac TRACON
Tue 11:25:30 AM 39.0000 -77.9500 123° Southeast 282 325 6,100 -793 Descending Potomac TRACON
Tue 11:26:30 AM 38.9500 -77.8500 104° East 282 325 6,000 -50 Descending Potomac TRACON
Tue 11:27:30 AM 38.9333 -77.7667 90° East 268 308 6,000  Level Potomac TRACON
Tue 11:28:30 AM 38.9333 -77.6833 76° East 259 298 6,000  Level Potomac TRACON
Tue 11:29:24 AM 38.9500 -77.6000 North 280 322 6,000  Level Potomac TRACON
Tue 11:30:24 AM 39.0333 -77.5833 360° North 275 316 6,000  Level Potomac TRACON
Tue 11:31:25 AM 39.1000 -77.5833 360° North 271 312 6,000 -248 Level Potomac TRACON
Tue 11:32:25 AM 39.1833 -77.5833 27° Northeast 264 304 5,500 -600 Descending Potomac TRACON
Tue 11:33:25 AM 39.2333 -77.5500 90° East 283 326 4,800 -744 Descending Potomac TRACON
Tue 11:34:26 AM 39.2333 -77.4667 159° South 251 289 4,000 -417 Descending Potomac TRACON
Tue 11:35:20 AM 39.2000 -77.4500 180° South 147 169 4,000 -105 Level Potomac TRACON
Tue 11:36:20 AM 39.1500 -77.4500 180° South 148 170 3,800 -496 Descending Potomac TRACON
Tue 11:37:21 AM 39.1167 -77.4500 180° South 151 174 3,000 -793 Descending Potomac TRACON
Tue 11:38:21 AM 39.0667 -77.4500 201° Southwest 159 183 2,200 -793 Descending Potomac TRACON
Tue 11:39:22 AM 39.0333 -77.4667 180° South 153 176 1,400 -730 Descending Potomac TRACON
Tue 11:40:16 AM 39.0000 -77.4667 180° South 116 133 800 -667 Descending Potomac TRACON

Login

Don't have an account? Register now (free) for customized features, flight alerts, and more!